sensor_id;sensor_type;location;lat;lon;timestamp;P1;durP1;ratioP1;P2;durP2;ratioP2
19547;SDS011;9919;58.014;11.826;2022-10-13T00:01:15;0.40;;;0.40;;
19547;SDS011;9919;58.014;11.826;2022-10-13T00:03:19;0.50;;;0.50;;
19547;SDS011;9919;58.014;11.826;2022-10-13T00:05:20;1.15;;;0.40;;
19547;SDS011;9919;58.014;11.826;2022-10-13T00:07:21;0.50;;;0.47;;
19547;SDS011;9919;58.014;11.826;2022-10-13T00:09:23;1.50;;;0.68;;
19547;SDS011;9919;58.014;11.826;2022-10-13T00:11:28;0.65;;;0.25;;
19547;SDS011;9919;58.014;11.826;2022-10-13T00:13:30;0.30;;;0.30;;
19547;SDS011;9919;58.014;11.826;2022-10-13T00:15:31;0.22;;;0.22;;
19547;SDS011;9919;58.014;11.826;2022-10-13T00:17:35;0.47;;;0.40;;
19547;SDS011;9919;58.014;11.826;2022-10-13T00:19:37;0.50;;;0.50;;
19547;SDS011;9919;58.014;11.826;2022-10-13T00:21:39;0.40;;;0.40;;
19547;SDS011;9919;58.014;11.826;2022-10-13T00:23:41;0.28;;;0.28;;
19547;SDS011;9919;58.014;11.826;2022-10-13T00:25:45;2.17;;;0.40;;
19547;SDS011;9919;58.014;11.826;2022-10-13T00:27:47;0.63;;;0.52;;
19547;SDS011;9919;58.014;11.826;2022-10-13T00:29:48;0.25;;;0.25;;
19547;SDS011;9919;58.014;11.826;2022-10-13T00:31:50;0.40;;;0.40;;
19547;SDS011;9919;58.014;11.826;2022-10-13T00:33:51;0.30;;;0.30;;
19547;SDS011;9919;58.014;11.826;2022-10-13T00:35:53;0.50;;;0.50;;
19547;SDS011;9919;58.014;11.826;2022-10-13T00:37:55;0.40;;;0.40;;
19547;SDS011;9919;58.014;11.826;2022-10-13T00:39:56;0.20;;;0.20;;
19547;SDS011;9919;58.014;11.826;2022-10-13T00:41:58;0.77;;;0.50;;
19547;SDS011;9919;58.014;11.826;2022-10-13T00:44:04;0.73;;;0.30;;
19547;SDS011;9919;58.014;11.826;2022-10-13T00:46:27;0.30;;;0.30;;
19547;SDS011;9919;58.014;11.826;2022-10-13T00:48:35;0.38;;;0.38;;
19547;SDS011;9919;58.014;11.826;2022-10-13T00:50:37;0.40;;;0.40;;
19547;SDS011;9919;58.014;11.826;2022-10-13T00:52:40;0.45;;;0.40;;
19547;SDS011;9919;58.014;11.826;2022-10-13T00:54:42;0.43;;;0.30;;
19547;SDS011;9919;58.014;11.826;2022-10-13T00:56:44;0.75;;;0.40;;
19547;SDS011;9919;58.014;11.826;2022-10-13T00:58:46;0.45;;;0.40;;
19547;SDS011;9919;58.014;11.826;2022-10-13T01:00:49;0.30;;;0.30;;
19547;SDS011;9919;58.014;11.826;2022-10-13T01:02:51;0.45;;;0.30;;
19547;SDS011;9919;58.014;11.826;2022-10-13T01:04:52;0.30;;;0.30;;
19547;SDS011;9919;58.014;11.826;2022-10-13T01:06:55;0.40;;;0.40;;
19547;SDS011;9919;58.014;11.826;2022-10-13T01:08:58;0.47;;;0.47;;
19547;SDS011;9919;58.014;11.826;2022-10-13T01:13:23;0.47;;;0.32;;
19547;SDS011;9919;58.014;11.826;2022-10-13T01:15:49;0.32;;;0.32;;
19547;SDS011;9919;58.014;11.826;2022-10-13T01:18:06;0.30;;;0.30;;
19547;SDS011;9919;58.014;11.826;2022-10-13T01:22:35;0.35;;;0.30;;
19547;SDS011;9919;58.014;11.826;2022-10-13T01:32:28;0.25;;;0.25;;
19547;SDS011;9919;58.014;11.826;2022-10-13T01:34:52;0.63;;;0.40;;
19547;SDS011;9919;58.014;11.826;2022-10-13T01:37:02;0.28;;;0.28;;
19547;SDS011;9919;58.014;11.826;2022-10-13T01:39:11;0.82;;;0.50;;
19547;SDS011;9919;58.014;11.826;2022-10-13T01:43:55;0.75;;;0.38;;
19547;SDS011;9919;58.014;11.826;2022-10-13T01:46:11;0.63;;;0.50;;
19547;SDS011;9919;58.014;11.826;2022-10-13T01:48:20;0.50;;;0.50;;
19547;SDS011;9919;58.014;11.826;2022-10-13T01:50:22;0.80;;;0.60;;
19547;SDS011;9919;58.014;11.826;2022-10-13T01:52:24;0.50;;;0.50;;
19547;SDS011;9919;58.014;11.826;2022-10-13T01:54:27;1.58;;;0.50;;
19547;SDS011;9919;58.014;11.826;2022-10-13T01:56:29;0.50;;;0.45;;
19547;SDS011;9919;58.014;11.826;2022-10-13T01:58:31;0.35;;;0.35;;
19547;SDS011;9919;58.014;11.826;2022-10-13T02:00:35;0.32;;;0.32;;
19547;SDS011;9919;58.014;11.826;2022-10-13T02:04:52;0.55;;;0.52;;
19547;SDS011;9919;58.014;11.826;2022-10-13T02:07:10;0.30;;;0.30;;
19547;SDS011;9919;58.014;11.826;2022-10-13T02:11:26;1.10;;;0.47;;
19547;SDS011;9919;58.014;11.826;2022-10-13T02:13:28;0.82;;;0.32;;
19547;SDS011;9919;58.014;11.826;2022-10-13T02:15:34;0.30;;;0.30;;
19547;SDS011;9919;58.014;11.826;2022-10-13T02:17:44;0.22;;;0.22;;
19547;SDS011;9919;58.014;11.826;2022-10-13T02:19:45;1.35;;;0.43;;
19547;SDS011;9919;58.014;11.826;2022-10-13T02:21:47;0.65;;;0.50;;
19547;SDS011;9919;58.014;11.826;2022-10-13T02:23:48;0.68;;;0.45;;
19547;SDS011;9919;58.014;11.826;2022-10-13T02:25:50;0.40;;;0.40;;
19547;SDS011;9919;58.014;11.826;2022-10-13T02:27:52;1.67;;;0.47;;
19547;SDS011;9919;58.014;11.826;2022-10-13T02:29:54;0.55;;;0.50;;
19547;SDS011;9919;58.014;11.826;2022-10-13T02:31:56;0.60;;;0.57;;
19547;SDS011;9919;58.014;11.826;2022-10-13T02:33:58;0.30;;;0.30;;
19547;SDS011;9919;58.014;11.826;2022-10-13T02:35:59;0.30;;;0.30;;
19547;SDS011;9919;58.014;11.826;2022-10-13T02:38:01;0.43;;;0.35;;
19547;SDS011;9919;58.014;11.826;2022-10-13T02:40:03;0.35;;;0.35;;
19547;SDS011;9919;58.014;11.826;2022-10-13T02:42:05;0.85;;;0.50;;
19547;SDS011;9919;58.014;11.826;2022-10-13T02:44:06;0.93;;;0.68;;
19547;SDS011;9919;58.014;11.826;2022-10-13T02:46:08;0.30;;;0.30;;
19547;SDS011;9919;58.014;11.826;2022-10-13T02:48:09;0.55;;;0.35;;
19547;SDS011;9919;58.014;11.826;2022-10-13T02:50:10;0.30;;;0.30;;
19547;SDS011;9919;58.014;11.826;2022-10-13T02:52:12;0.32;;;0.32;;
19547;SDS011;9919;58.014;11.826;2022-10-13T02:54:14;0.25;;;0.25;;
19547;SDS011;9919;58.014;11.826;2022-10-13T02:56:15;1.63;;;0.60;;
19547;SDS011;9919;58.014;11.826;2022-10-13T02:58:17;0.60;;;0.40;;
19547;SDS011;9919;58.014;11.826;2022-10-13T03:00:19;0.52;;;0.30;;
19547;SDS011;9919;58.014;11.826;2022-10-13T03:02:20;0.50;;;0.50;;
19547;SDS011;9919;58.014;11.826;2022-10-13T03:04:22;1.55;;;0.40;;
19547;SDS011;9919;58.014;11.826;2022-10-13T03:06:23;1.23;;;0.30;;
19547;SDS011;9919;58.014;11.826;2022-10-13T03:08:25;0.63;;;0.50;;
19547;SDS011;9919;58.014;11.826;2022-10-13T03:10:27;0.30;;;0.30;;
19547;SDS011;9919;58.014;11.826;2022-10-13T03:12:30;0.75;;;0.40;;
19547;SDS011;9919;58.014;11.826;2022-10-13T03:14:31;0.35;;;0.35;;
19547;SDS011;9919;58.014;11.826;2022-10-13T03:16:32;0.28;;;0.28;;
19547;SDS011;9919;58.014;11.826;2022-10-13T03:18:34;0.20;;;0.20;;
19547;SDS011;9919;58.014;11.826;2022-10-13T03:20:35;0.20;;;0.20;;
19547;SDS011;9919;58.014;11.826;2022-10-13T03:22:36;0.28;;;0.28;;
19547;SDS011;9919;58.014;11.826;2022-10-13T03:24:38;0.30;;;0.30;;
19547;SDS011;9919;58.014;11.826;2022-10-13T03:26:39;0.63;;;0.63;;
19547;SDS011;9919;58.014;11.826;2022-10-13T03:28:41;0.50;;;0.45;;
19547;SDS011;9919;58.014;11.826;2022-10-13T03:30:42;0.85;;;0.60;;
19547;SDS011;9919;58.014;11.826;2022-10-13T03:32:44;0.35;;;0.32;;
19547;SDS011;9919;58.014;11.826;2022-10-13T03:34:46;1.08;;;0.65;;
19547;SDS011;9919;58.014;11.826;2022-10-13T03:36:47;0.30;;;0.30;;
19547;SDS011;9919;58.014;11.826;2022-10-13T03:38:48;0.65;;;0.40;;
19547;SDS011;9919;58.014;11.826;2022-10-13T03:40:51;0.20;;;0.20;;
19547;SDS011;9919;58.014;11.826;2022-10-13T03:42:53;0.55;;;0.55;;
19547;SDS011;9919;58.014;11.826;2022-10-13T03:44:55;0.88;;;0.52;;
19547;SDS011;9919;58.014;11.826;2022-10-13T03:46:57;0.40;;;0.40;;
19547;SDS011;9919;58.014;11.826;2022-10-13T03:48:59;0.40;;;0.40;;
19547;SDS011;9919;58.014;11.826;2022-10-13T03:51:07;0.60;;;0.60;;
19547;SDS011;9919;58.014;11.826;2022-10-13T03:53:12;0.50;;;0.50;;
19547;SDS011;9919;58.014;11.826;2022-10-13T03:55:14;0.63;;;0.43;;
19547;SDS011;9919;58.014;11.826;2022-10-13T03:57:16;0.30;;;0.30;;
19547;SDS011;9919;58.014;11.826;2022-10-13T03:59:17;0.50;;;0.50;;
19547;SDS011;9919;58.014;11.826;2022-10-13T04:01:19;1.10;;;0.32;;
19547;SDS011;9919;58.014;11.826;2022-10-13T04:03:22;0.30;;;0.30;;
19547;SDS011;9919;58.014;11.826;2022-10-13T04:05:23;0.55;;;0.55;;
19547;SDS011;9919;58.014;11.826;2022-10-13T04:07:25;1.30;;;0.50;;
19547;SDS011;9919;58.014;11.826;2022-10-13T04:09:26;1.17;;;0.60;;
19547;SDS011;9919;58.014;11.826;2022-10-13T04:11:28;0.52;;;0.40;;
19547;SDS011;9919;58.014;11.826;2022-10-13T04:13:29;0.50;;;0.38;;
19547;SDS011;9919;58.014;11.826;2022-10-13T04:15:40;0.50;;;0.50;;
19547;SDS011;9919;58.014;11.826;2022-10-13T04:17:41;0.40;;;0.40;;
19547;SDS011;9919;58.014;11.826;2022-10-13T04:19:42;0.50;;;0.50;;
19547;SDS011;9919;58.014;11.826;2022-10-13T04:21:44;0.40;;;0.40;;
19547;SDS011;9919;58.014;11.826;2022-10-13T04:23:45;0.90;;;0.57;;
19547;SDS011;9919;58.014;11.826;2022-10-13T04:25:47;1.27;;;0.43;;
19547;SDS011;9919;58.014;11.826;2022-10-13T04:27:48;0.40;;;0.40;;
19547;SDS011;9919;58.014;11.826;2022-10-13T04:29:49;0.30;;;0.30;;
19547;SDS011;9919;58.014;11.826;2022-10-13T04:31:51;0.32;;;0.32;;
19547;SDS011;9919;58.014;11.826;2022-10-13T04:33:52;4.85;;;0.55;;
19547;SDS011;9919;58.014;11.826;2022-10-13T04:35:54;0.40;;;0.40;;
19547;SDS011;9919;58.014;11.826;2022-10-13T04:37:56;0.40;;;0.40;;
19547;SDS011;9919;58.014;11.826;2022-10-13T04:39:57;0.68;;;0.40;;
19547;SDS011;9919;58.014;11.826;2022-10-13T04:41:59;0.32;;;0.32;;
19547;SDS011;9919;58.014;11.826;2022-10-13T04:44:00;1.98;;;0.63;;
19547;SDS011;9919;58.014;11.826;2022-10-13T04:46:03;0.40;;;0.40;;
19547;SDS011;9919;58.014;11.826;2022-10-13T04:48:06;0.38;;;0.38;;
19547;SDS011;9919;58.014;11.826;2022-10-13T04:50:08;1.55;;;0.45;;
19547;SDS011;9919;58.014;11.826;2022-10-13T04:52:10;0.35;;;0.35;;
19547;SDS011;9919;58.014;11.826;2022-10-13T04:54:11;0.35;;;0.28;;
19547;SDS011;9919;58.014;11.826;2022-10-13T04:56:14;0.50;;;0.50;;
19547;SDS011;9919;58.014;11.826;2022-10-13T04:58:17;0.55;;;0.52;;
19547;SDS011;9919;58.014;11.826;2022-10-13T05:00:19;1.80;;;0.47;;
19547;SDS011;9919;58.014;11.826;2022-10-13T05:02:20;0.40;;;0.40;;
19547;SDS011;9919;58.014;11.826;2022-10-13T05:04:23;0.95;;;0.77;;
19547;SDS011;9919;58.014;11.826;2022-10-13T05:06:25;0.63;;;0.35;;
19547;SDS011;9919;58.014;11.826;2022-10-13T05:08:28;0.55;;;0.55;;
19547;SDS011;9919;58.014;11.826;2022-10-13T05:10:32;2.80;;;0.50;;
19547;SDS011;9919;58.014;11.826;2022-10-13T05:12:33;1.02;;;0.90;;
19547;SDS011;9919;58.014;11.826;2022-10-13T05:14:35;0.63;;;0.35;;
19547;SDS011;9919;58.014;11.826;2022-10-13T05:16:37;0.57;;;0.40;;
19547;SDS011;9919;58.014;11.826;2022-10-13T05:18:38;0.47;;;0.43;;
19547;SDS011;9919;58.014;11.826;2022-10-13T05:20:40;0.40;;;0.40;;
19547;SDS011;9919;58.014;11.826;2022-10-13T05:22:42;0.50;;;0.50;;
19547;SDS011;9919;58.014;11.826;2022-10-13T05:24:43;0.40;;;0.40;;
19547;SDS011;9919;58.014;11.826;2022-10-13T05:26:45;0.40;;;0.40;;
19547;SDS011;9919;58.014;11.826;2022-10-13T05:28:46;1.90;;;0.30;;
19547;SDS011;9919;58.014;11.826;2022-10-13T05:30:48;0.50;;;0.50;;
19547;SDS011;9919;58.014;11.826;2022-10-13T05:32:50;0.50;;;0.50;;
19547;SDS011;9919;58.014;11.826;2022-10-13T05:34:51;0.50;;;0.50;;
19547;SDS011;9919;58.014;11.826;2022-10-13T05:36:52;1.15;;;0.50;;
19547;SDS011;9919;58.014;11.826;2022-10-13T05:38:55;1.80;;;0.73;;
19547;SDS011;9919;58.014;11.826;2022-10-13T05:41:04;0.45;;;0.45;;
19547;SDS011;9919;58.014;11.826;2022-10-13T05:43:07;0.57;;;0.57;;
19547;SDS011;9919;58.014;11.826;2022-10-13T05:45:09;0.40;;;0.40;;
19547;SDS011;9919;58.014;11.826;2022-10-13T05:47:11;1.80;;;0.63;;
19547;SDS011;9919;58.014;11.826;2022-10-13T05:49:12;0.30;;;0.30;;
19547;SDS011;9919;58.014;11.826;2022-10-13T05:51:15;0.60;;;0.60;;
19547;SDS011;9919;58.014;11.826;2022-10-13T05:53:24;0.40;;;0.40;;
19547;SDS011;9919;58.014;11.826;2022-10-13T05:55:27;0.77;;;0.68;;
19547;SDS011;9919;58.014;11.826;2022-10-13T05:57:33;0.50;;;0.50;;
19547;SDS011;9919;58.014;11.826;2022-10-13T06:00:05;0.30;;;0.30;;
19547;SDS011;9919;58.014;11.826;2022-10-13T06:02:10;0.15;;;0.15;;
19547;SDS011;9919;58.014;11.826;2022-10-13T06:04:17;0.40;;;0.40;;
19547;SDS011;9919;58.014;11.826;2022-10-13T06:06:21;0.30;;;0.30;;
19547;SDS011;9919;58.014;11.826;2022-10-13T06:08:22;0.40;;;0.40;;
19547;SDS011;9919;58.014;11.826;2022-10-13T06:10:24;0.22;;;0.22;;
19547;SDS011;9919;58.014;11.826;2022-10-13T06:12:26;0.35;;;0.35;;
19547;SDS011;9919;58.014;11.826;2022-10-13T06:14:27;0.70;;;0.60;;
19547;SDS011;9919;58.014;11.826;2022-10-13T06:16:29;0.38;;;0.38;;
19547;SDS011;9919;58.014;11.826;2022-10-13T06:18:30;0.32;;;0.32;;
19547;SDS011;9919;58.014;11.826;2022-10-13T06:20:32;0.90;;;0.40;;
19547;SDS011;9919;58.014;11.826;2022-10-13T06:22:33;0.52;;;0.38;;
19547;SDS011;9919;58.014;11.826;2022-10-13T06:24:35;0.40;;;0.40;;
19547;SDS011;9919;58.014;11.826;2022-10-13T06:26:37;0.50;;;0.50;;
19547;SDS011;9919;58.014;11.826;2022-10-13T06:28:38;0.40;;;0.40;;
19547;SDS011;9919;58.014;11.826;2022-10-13T06:30:39;0.85;;;0.70;;
19547;SDS011;9919;58.014;11.826;2022-10-13T06:32:42;0.63;;;0.63;;
19547;SDS011;9919;58.014;11.826;2022-10-13T06:34:43;0.85;;;0.50;;
19547;SDS011;9919;58.014;11.826;2022-10-13T06:36:46;0.40;;;0.40;;
19547;SDS011;9919;58.014;11.826;2022-10-13T06:38:47;0.52;;;0.47;;
19547;SDS011;9919;58.014;11.826;2022-10-13T06:40:49;0.45;;;0.45;;
19547;SDS011;9919;58.014;11.826;2022-10-13T06:42:50;1.08;;;0.70;;
19547;SDS011;9919;58.014;11.826;2022-10-13T06:44:52;0.30;;;0.28;;
19547;SDS011;9919;58.014;11.826;2022-10-13T06:46:53;0.45;;;0.40;;
19547;SDS011;9919;58.014;11.826;2022-10-13T06:48:54;0.30;;;0.30;;
19547;SDS011;9919;58.014;11.826;2022-10-13T06:50:59;0.40;;;0.32;;
19547;SDS011;9919;58.014;11.826;2022-10-13T06:53:05;0.57;;;0.52;;
19547;SDS011;9919;58.014;11.826;2022-10-13T06:55:06;0.40;;;0.40;;
19547;SDS011;9919;58.014;11.826;2022-10-13T06:57:08;0.25;;;0.25;;
19547;SDS011;9919;58.014;11.826;2022-10-13T06:59:11;0.57;;;0.47;;
19547;SDS011;9919;58.014;11.826;2022-10-13T07:01:12;0.30;;;0.30;;
19547;SDS011;9919;58.014;11.826;2022-10-13T07:03:14;1.70;;;0.52;;
19547;SDS011;9919;58.014;11.826;2022-10-13T07:05:16;0.40;;;0.40;;
19547;SDS011;9919;58.014;11.826;2022-10-13T07:07:18;0.80;;;0.50;;
19547;SDS011;9919;58.014;11.826;2022-10-13T07:09:20;1.58;;;0.40;;
19547;SDS011;9919;58.014;11.826;2022-10-13T07:11:21;0.30;;;0.30;;
19547;SDS011;9919;58.014;11.826;2022-10-13T07:13:23;0.45;;;0.40;;
19547;SDS011;9919;58.014;11.826;2022-10-13T07:15:25;1.30;;;0.60;;
19547;SDS011;9919;58.014;11.826;2022-10-13T07:17:26;0.30;;;0.30;;
19547;SDS011;9919;58.014;11.826;2022-10-13T07:19:28;0.60;;;0.60;;
19547;SDS011;9919;58.014;11.826;2022-10-13T07:21:31;0.40;;;0.25;;
19547;SDS011;9919;58.014;11.826;2022-10-13T07:23:32;0.73;;;0.32;;
19547;SDS011;9919;58.014;11.826;2022-10-13T07:25:33;0.22;;;0.22;;
19547;SDS011;9919;58.014;11.826;2022-10-13T07:27:35;0.38;;;0.38;;
19547;SDS011;9919;58.014;11.826;2022-10-13T07:29:39;0.50;;;0.50;;
19547;SDS011;9919;58.014;11.826;2022-10-13T07:31:43;1.65;;;0.52;;
19547;SDS011;9919;58.014;11.826;2022-10-13T07:33:46;0.28;;;0.28;;
19547;SDS011;9919;58.014;11.826;2022-10-13T07:35:48;0.38;;;0.25;;
19547;SDS011;9919;58.014;11.826;2022-10-13T07:37:51;0.70;;;0.50;;
19547;SDS011;9919;58.014;11.826;2022-10-13T07:39:53;0.57;;;0.40;;
19547;SDS011;9919;58.014;11.826;2022-10-13T07:41:54;0.80;;;0.65;;
19547;SDS011;9919;58.014;11.826;2022-10-13T07:43:56;3.58;;;1.05;;
19547;SDS011;9919;58.014;11.826;2022-10-13T07:46:00;0.90;;;0.90;;
19547;SDS011;9919;58.014;11.826;2022-10-13T07:48:03;2.88;;;1.38;;
19547;SDS011;9919;58.014;11.826;2022-10-13T07:50:05;3.03;;;1.67;;
19547;SDS011;9919;58.014;11.826;2022-10-13T07:52:06;1.40;;;1.27;;
19547;SDS011;9919;58.014;11.826;2022-10-13T07:54:08;1.27;;;1.02;;
19547;SDS011;9919;58.014;11.826;2022-10-13T07:56:11;2.50;;;1.33;;
19547;SDS011;9919;58.014;11.826;2022-10-13T07:58:13;2.40;;;1.40;;
19547;SDS011;9919;58.014;11.826;2022-10-13T08:00:14;6.03;;;2.45;;
19547;SDS011;9919;58.014;11.826;2022-10-13T08:02:16;5.97;;;2.47;;
19547;SDS011;9919;58.014;11.826;2022-10-13T08:04:17;7.70;;;2.58;;
19547;SDS011;9919;58.014;11.826;2022-10-13T08:06:19;2.28;;;2.00;;
19547;SDS011;9919;58.014;11.826;2022-10-13T08:08:20;4.10;;;2.13;;
19547;SDS011;9919;58.014;11.826;2022-10-13T08:10:22;9.75;;;2.97;;
19547;SDS011;9919;58.014;11.826;2022-10-13T08:12:24;6.10;;;2.60;;
19547;SDS011;9919;58.014;11.826;2022-10-13T08:14:25;6.07;;;2.10;;
19547;SDS011;9919;58.014;11.826;2022-10-13T08:16:27;5.95;;;2.38;;
19547;SDS011;9919;58.014;11.826;2022-10-13T08:18:29;7.50;;;2.85;;
19547;SDS011;9919;58.014;11.826;2022-10-13T08:20:31;3.47;;;1.70;;
19547;SDS011;9919;58.014;11.826;2022-10-13T08:22:33;3.45;;;1.77;;
19547;SDS011;9919;58.014;11.826;2022-10-13T08:24:34;5.10;;;1.88;;
19547;SDS011;9919;58.014;11.826;2022-10-13T08:26:36;3.90;;;1.85;;
19547;SDS011;9919;58.014;11.826;2022-10-13T08:28:37;5.30;;;2.38;;
19547;SDS011;9919;58.014;11.826;2022-10-13T08:30:38;3.72;;;2.13;;
19547;SDS011;9919;58.014;11.826;2022-10-13T08:32:40;7.43;;;2.13;;
19547;SDS011;9919;58.014;11.826;2022-10-13T08:34:41;3.88;;;1.83;;
19547;SDS011;9919;58.014;11.826;2022-10-13T08:36:43;2.28;;;1.77;;
19547;SDS011;9919;58.014;11.826;2022-10-13T08:38:45;7.90;;;2.00;;
19547;SDS011;9919;58.014;11.826;2022-10-13T08:40:47;6.60;;;2.28;;
19547;SDS011;9919;58.014;11.826;2022-10-13T08:42:49;3.20;;;1.80;;
19547;SDS011;9919;58.014;11.826;2022-10-13T08:45:01;4.85;;;1.90;;
19547;SDS011;9919;58.014;11.826;2022-10-13T08:47:09;7.68;;;2.40;;
19547;SDS011;9919;58.014;11.826;2022-10-13T08:49:31;7.25;;;2.40;;
19547;SDS011;9919;58.014;11.826;2022-10-13T08:51:32;6.25;;;2.47;;
19547;SDS011;9919;58.014;11.826;2022-10-13T08:57:41;4.95;;;1.48;;
19547;SDS011;9919;58.014;11.826;2022-10-13T08:59:43;3.17;;;2.20;;
19547;SDS011;9919;58.014;11.826;2022-10-13T09:01:45;2.35;;;1.20;;
19547;SDS011;9919;58.014;11.826;2022-10-13T09:03:55;3.63;;;1.67;;
19547;SDS011;9919;58.014;11.826;2022-10-13T09:08:16;4.75;;;1.65;;
19547;SDS011;9919;58.014;11.826;2022-10-13T09:10:19;3.20;;;1.33;;
19547;SDS011;9919;58.014;11.826;2022-10-13T09:12:21;1.60;;;1.08;;
19547;SDS011;9919;58.014;11.826;2022-10-13T09:14:36;1.88;;;1.17;;
19547;SDS011;9919;58.014;11.826;2022-10-13T09:16:40;2.03;;;1.33;;
19547;SDS011;9919;58.014;11.826;2022-10-13T09:18:42;1.98;;;0.93;;
19547;SDS011;9919;58.014;11.826;2022-10-13T09:20:43;1.60;;;1.50;;
19547;SDS011;9919;58.014;11.826;2022-10-13T09:22:59;2.55;;;1.88;;
19547;SDS011;9919;58.014;11.826;2022-10-13T09:27:11;2.75;;;1.30;;
19547;SDS011;9919;58.014;11.826;2022-10-13T09:29:19;1.60;;;1.23;;
19547;SDS011;9919;58.014;11.826;2022-10-13T09:31:26;2.97;;;1.45;;
19547;SDS011;9919;58.014;11.826;2022-10-13T09:33:29;2.97;;;1.75;;
19547;SDS011;9919;58.014;11.826;2022-10-13T09:35:35;5.40;;;1.70;;
19547;SDS011;9919;58.014;11.826;2022-10-13T09:37:37;3.10;;;1.67;;
19547;SDS011;9919;58.014;11.826;2022-10-13T09:39:38;2.25;;;1.80;;
19547;SDS011;9919;58.014;11.826;2022-10-13T09:41:43;2.05;;;1.58;;
19547;SDS011;9919;58.014;11.826;2022-10-13T09:45:46;4.30;;;1.67;;
19547;SDS011;9919;58.014;11.826;2022-10-13T09:47:48;5.15;;;1.83;;
19547;SDS011;9919;58.014;11.826;2022-10-13T09:50:12;3.97;;;1.83;;
19547;SDS011;9919;58.014;11.826;2022-10-13T09:52:16;4.30;;;1.55;;
19547;SDS011;9919;58.014;11.826;2022-10-13T09:56:40;2.63;;;1.58;;
19547;SDS011;9919;58.014;11.826;2022-10-13T09:58:56;2.42;;;1.33;;
19547;SDS011;9919;58.014;11.826;2022-10-13T10:01:24;1.17;;;1.00;;
19547;SDS011;9919;58.014;11.826;2022-10-13T10:03:34;1.40;;;1.10;;
19547;SDS011;9919;58.014;11.826;2022-10-13T10:05:56;1.23;;;1.00;;
19547;SDS011;9919;58.014;11.826;2022-10-13T10:08:05;1.98;;;0.73;;
19547;SDS011;9919;58.014;11.826;2022-10-13T10:10:33;2.10;;;1.30;;
19547;SDS011;9919;58.014;11.826;2022-10-13T10:12:36;1.63;;;0.98;;
19547;SDS011;9919;58.014;11.826;2022-10-13T10:14:40;1.20;;;0.93;;
19547;SDS011;9919;58.014;11.826;2022-10-13T10:16:42;2.78;;;1.20;;
19547;SDS011;9919;58.014;11.826;2022-10-13T10:19:39;2.22;;;1.25;;
19547;SDS011;9919;58.014;11.826;2022-10-13T10:23:46;1.60;;;0.90;;
19547;SDS011;9919;58.014;11.826;2022-10-13T10:26:00;3.60;;;1.10;;
19547;SDS011;9919;58.014;11.826;2022-10-13T10:30:26;1.70;;;1.17;;
19547;SDS011;9919;58.014;11.826;2022-10-13T10:34:49;1.65;;;1.10;;
19547;SDS011;9919;58.014;11.826;2022-10-13T10:37:12;2.17;;;1.20;;
19547;SDS011;9919;58.014;11.826;2022-10-13T10:43:53;0.75;;;0.75;;
19547;SDS011;9919;58.014;11.826;2022-10-13T10:45:59;2.60;;;1.30;;
19547;SDS011;9919;58.014;11.826;2022-10-13T10:48:06;5.47;;;1.40;;
19547;SDS011;9919;58.014;11.826;2022-10-13T10:50:14;1.17;;;0.85;;
19547;SDS011;9919;58.014;11.826;2022-10-13T10:52:19;3.80;;;1.30;;
19547;SDS011;9919;58.014;11.826;2022-10-13T10:57:05;3.25;;;1.33;;
19547;SDS011;9919;58.014;11.826;2022-10-13T10:59:21;1.60;;;0.80;;
19547;SDS011;9919;58.014;11.826;2022-10-13T11:01:42;1.05;;;0.95;;
19547;SDS011;9919;58.014;11.826;2022-10-13T11:06:34;1.10;;;0.82;;
19547;SDS011;9919;58.014;11.826;2022-10-13T11:10:39;1.67;;;1.27;;
19547;SDS011;9919;58.014;11.826;2022-10-13T11:15:10;1.88;;;0.90;;
19547;SDS011;9919;58.014;11.826;2022-10-13T11:17:30;3.28;;;1.23;;
19547;SDS011;9919;58.014;11.826;2022-10-13T11:19:36;3.47;;;1.20;;
19547;SDS011;9919;58.014;11.826;2022-10-13T11:23:55;2.50;;;0.95;;
19547;SDS011;9919;58.014;11.826;2022-10-13T11:26:17;1.98;;;0.95;;
19547;SDS011;9919;58.014;11.826;2022-10-13T11:30:43;0.90;;;0.90;;
19547;SDS011;9919;58.014;11.826;2022-10-13T11:32:46;1.25;;;1.00;;
19547;SDS011;9919;58.014;11.826;2022-10-13T11:37:12;0.80;;;0.80;;
19547;SDS011;9919;58.014;11.826;2022-10-13T11:41:27;1.75;;;0.80;;
19547;SDS011;9919;58.014;11.826;2022-10-13T11:43:40;1.98;;;1.00;;
19547;SDS011;9919;58.014;11.826;2022-10-13T11:53:10;3.45;;;1.17;;
19547;SDS011;9919;58.014;11.826;2022-10-13T11:55:18;1.80;;;0.90;;
19547;SDS011;9919;58.014;11.826;2022-10-13T11:57:40;1.80;;;1.00;;
19547;SDS011;9919;58.014;11.826;2022-10-13T11:59:44;3.20;;;0.85;;
19547;SDS011;9919;58.014;11.826;2022-10-13T12:01:46;2.10;;;0.88;;
19547;SDS011;9919;58.014;11.826;2022-10-13T12:03:52;1.35;;;0.82;;
19547;SDS011;9919;58.014;11.826;2022-10-13T12:05:54;3.83;;;1.40;;
19547;SDS011;9919;58.014;11.826;2022-10-13T12:08:02;1.67;;;0.80;;
19547;SDS011;9919;58.014;11.826;2022-10-13T12:10:04;2.17;;;0.90;;
19547;SDS011;9919;58.014;11.826;2022-10-13T12:12:18;1.38;;;1.23;;
19547;SDS011;9919;58.014;11.826;2022-10-13T12:14:26;1.67;;;0.93;;
19547;SDS011;9919;58.014;11.826;2022-10-13T12:16:31;2.85;;;0.95;;
19547;SDS011;9919;58.014;11.826;2022-10-13T12:18:34;0.88;;;0.80;;
19547;SDS011;9919;58.014;11.826;2022-10-13T12:20:37;2.17;;;0.75;;
19547;SDS011;9919;58.014;11.826;2022-10-13T12:22:45;0.95;;;0.68;;
19547;SDS011;9919;58.014;11.826;2022-10-13T12:24:57;2.80;;;0.82;;
19547;SDS011;9919;58.014;11.826;2022-10-13T12:27:19;2.40;;;0.90;;
19547;SDS011;9919;58.014;11.826;2022-10-13T12:29:30;1.45;;;0.70;;
19547;SDS011;9919;58.014;11.826;2022-10-13T12:31:41;0.98;;;0.90;;
19547;SDS011;9919;58.014;11.826;2022-10-13T12:33:50;0.70;;;0.70;;
19547;SDS011;9919;58.014;11.826;2022-10-13T12:36:09;1.10;;;1.00;;
19547;SDS011;9919;58.014;11.826;2022-10-13T12:38:16;1.27;;;1.13;;
19547;SDS011;9919;58.014;11.826;2022-10-13T12:40:19;1.05;;;0.95;;
19547;SDS011;9919;58.014;11.826;2022-10-13T12:42:22;1.33;;;0.90;;
19547;SDS011;9919;58.014;11.826;2022-10-13T12:44:34;1.20;;;1.00;;
19547;SDS011;9919;58.014;11.826;2022-10-13T12:48:48;0.70;;;0.70;;
19547;SDS011;9919;58.014;11.826;2022-10-13T12:50:50;1.33;;;0.70;;
19547;SDS011;9919;58.014;11.826;2022-10-13T12:55:15;2.25;;;0.55;;
19547;SDS011;9919;58.014;11.826;2022-10-13T12:57:36;3.05;;;1.08;;
19547;SDS011;9919;58.014;11.826;2022-10-13T12:59:39;0.85;;;0.60;;
19547;SDS011;9919;58.014;11.826;2022-10-13T13:01:42;1.08;;;0.95;;
19547;SDS011;9919;58.014;11.826;2022-10-13T13:03:44;0.82;;;0.80;;
19547;SDS011;9919;58.014;11.826;2022-10-13T13:06:05;0.50;;;0.50;;
19547;SDS011;9919;58.014;11.826;2022-10-13T13:08:29;1.13;;;0.65;;
19547;SDS011;9919;58.014;11.826;2022-10-13T13:10:33;0.57;;;0.57;;
19547;SDS011;9919;58.014;11.826;2022-10-13T13:12:35;0.55;;;0.55;;
19547;SDS011;9919;58.014;11.826;2022-10-13T13:14:38;0.90;;;0.90;;
19547;SDS011;9919;58.014;11.826;2022-10-13T13:16:40;2.55;;;1.00;;
19547;SDS011;9919;58.014;11.826;2022-10-13T13:18:43;1.00;;;0.88;;
19547;SDS011;9919;58.014;11.826;2022-10-13T13:20:48;2.40;;;0.90;;
19547;SDS011;9919;58.014;11.826;2022-10-13T13:22:51;2.35;;;1.08;;
19547;SDS011;9919;58.014;11.826;2022-10-13T13:24:53;0.85;;;0.85;;
19547;SDS011;9919;58.014;11.826;2022-10-13T13:26:55;0.93;;;0.93;;
19547;SDS011;9919;58.014;11.826;2022-10-13T13:28:57;1.13;;;1.02;;
19547;SDS011;9919;58.014;11.826;2022-10-13T13:30:59;0.85;;;0.60;;
19547;SDS011;9919;58.014;11.826;2022-10-13T13:33:00;0.73;;;0.73;;
19547;SDS011;9919;58.014;11.826;2022-10-13T13:35:02;0.82;;;0.82;;
19547;SDS011;9919;58.014;11.826;2022-10-13T13:37:04;0.93;;;0.63;;
19547;SDS011;9919;58.014;11.826;2022-10-13T13:39:11;0.80;;;0.80;;
19547;SDS011;9919;58.014;11.826;2022-10-13T13:41:15;0.55;;;0.55;;
19547;SDS011;9919;58.014;11.826;2022-10-13T13:43:17;2.60;;;0.70;;
19547;SDS011;9919;58.014;11.826;2022-10-13T13:45:19;2.85;;;0.63;;